sensor_id;sensor_type;location;lat;lon;timestamp;P1;durP1;ratioP1;P2;durP2;ratioP2
16963;SDS011;8598;50.508;10.436;2023-11-21T00:02:20;5.20;;;3.30;;
16963;SDS011;8598;50.508;10.436;2023-11-21T00:04:47;4.47;;;3.20;;
16963;SDS011;8598;50.508;10.436;2023-11-21T00:07:14;4.60;;;2.90;;
16963;SDS011;8598;50.508;10.436;2023-11-21T00:09:42;4.17;;;3.00;;
16963;SDS011;8598;50.508;10.436;2023-11-21T00:12:09;4.53;;;3.40;;
16963;SDS011;8598;50.508;10.436;2023-11-21T00:14:36;4.07;;;3.50;;
16963;SDS011;8598;50.508;10.436;2023-11-21T00:17:03;6.63;;;4.10;;
16963;SDS011;8598;50.508;10.436;2023-11-21T00:19:30;4.77;;;3.60;;
16963;SDS011;8598;50.508;10.436;2023-11-21T00:21:57;4.13;;;2.73;;
16963;SDS011;8598;50.508;10.436;2023-11-21T00:24:24;6.07;;;3.50;;
16963;SDS011;8598;50.508;10.436;2023-11-21T00:26:52;5.50;;;3.37;;
16963;SDS011;8598;50.508;10.436;2023-11-21T00:29:19;5.67;;;3.87;;
16963;SDS011;8598;50.508;10.436;2023-11-21T00:31:44;4.97;;;3.93;;
16963;SDS011;8598;50.508;10.436;2023-11-21T00:34:11;5.20;;;3.40;;
16963;SDS011;8598;50.508;10.436;2023-11-21T00:36:38;6.53;;;3.53;;
16963;SDS011;8598;50.508;10.436;2023-11-21T00:39:06;8.27;;;4.47;;
16963;SDS011;8598;50.508;10.436;2023-11-21T00:41:33;7.53;;;4.27;;
16963;SDS011;8598;50.508;10.436;2023-11-21T00:44:03;12.80;;;5.80;;
16963;SDS011;8598;50.508;10.436;2023-11-21T00:46:31;9.47;;;4.50;;
16963;SDS011;8598;50.508;10.436;2023-11-21T00:48:58;7.87;;;4.07;;
16963;SDS011;8598;50.508;10.436;2023-11-21T00:51:25;9.67;;;3.97;;
16963;SDS011;8598;50.508;10.436;2023-11-21T00:53:52;4.57;;;3.63;;
16963;SDS011;8598;50.508;10.436;2023-11-21T00:56:18;4.50;;;2.77;;
16963;SDS011;8598;50.508;10.436;2023-11-21T00:58:45;5.23;;;2.50;;
16963;SDS011;8598;50.508;10.436;2023-11-21T01:01:16;4.47;;;2.50;;
16963;SDS011;8598;50.508;10.436;2023-11-21T01:03:43;6.40;;;2.80;;
16963;SDS011;8598;50.508;10.436;2023-11-21T01:06:11;2.70;;;2.50;;
16963;SDS011;8598;50.508;10.436;2023-11-21T01:08:37;3.43;;;2.63;;
16963;SDS011;8598;50.508;10.436;2023-11-21T01:11:04;4.60;;;2.90;;
16963;SDS011;8598;50.508;10.436;2023-11-21T01:13:33;3.90;;;2.57;;
16963;SDS011;8598;50.508;10.436;2023-11-21T01:16:01;2.87;;;2.07;;
16963;SDS011;8598;50.508;10.436;2023-11-21T01:18:30;3.50;;;2.90;;
16963;SDS011;8598;50.508;10.436;2023-11-21T01:20:56;3.30;;;2.43;;
16963;SDS011;8598;50.508;10.436;2023-11-21T01:23:24;3.70;;;2.80;;
16963;SDS011;8598;50.508;10.436;2023-11-21T01:25:51;2.97;;;2.50;;
16963;SDS011;8598;50.508;10.436;2023-11-21T01:28:18;3.20;;;2.50;;
16963;SDS011;8598;50.508;10.436;2023-11-21T01:30:45;3.70;;;2.17;;
16963;SDS011;8598;50.508;10.436;2023-11-21T01:33:12;3.80;;;2.40;;
16963;SDS011;8598;50.508;10.436;2023-11-21T01:35:42;6.00;;;2.50;;
16963;SDS011;8598;50.508;10.436;2023-11-21T01:38:08;3.17;;;2.87;;
16963;SDS011;8598;50.508;10.436;2023-11-21T01:40:35;4.33;;;2.67;;
16963;SDS011;8598;50.508;10.436;2023-11-21T01:43:02;3.03;;;2.73;;
16963;SDS011;8598;50.508;10.436;2023-11-21T01:45:29;5.03;;;3.00;;
16963;SDS011;8598;50.508;10.436;2023-11-21T01:47:56;4.67;;;2.93;;
16963;SDS011;8598;50.508;10.436;2023-11-21T01:50:23;4.80;;;2.50;;
16963;SDS011;8598;50.508;10.436;2023-11-21T01:52:52;2.90;;;2.70;;
16963;SDS011;8598;50.508;10.436;2023-11-21T01:55:19;4.07;;;3.07;;
16963;SDS011;8598;50.508;10.436;2023-11-21T01:57:46;3.43;;;2.77;;
16963;SDS011;8598;50.508;10.436;2023-11-21T02:00:13;3.87;;;2.90;;
16963;SDS011;8598;50.508;10.436;2023-11-21T02:02:44;8.33;;;3.60;;
16963;SDS011;8598;50.508;10.436;2023-11-21T02:05:12;6.93;;;4.33;;
16963;SDS011;8598;50.508;10.436;2023-11-21T02:07:40;6.33;;;4.20;;
16963;SDS011;8598;50.508;10.436;2023-11-21T02:10:10;5.50;;;3.10;;
16963;SDS011;8598;50.508;10.436;2023-11-21T02:12:39;5.47;;;3.57;;
16963;SDS011;8598;50.508;10.436;2023-11-21T02:15:07;7.63;;;3.50;;
16963;SDS011;8598;50.508;10.436;2023-11-21T02:17:40;6.67;;;3.37;;
16963;SDS011;8598;50.508;10.436;2023-11-21T02:20:07;5.40;;;4.00;;
16963;SDS011;8598;50.508;10.436;2023-11-21T02:22:40;7.43;;;4.00;;
16963;SDS011;8598;50.508;10.436;2023-11-21T02:25:09;6.73;;;4.13;;
16963;SDS011;8598;50.508;10.436;2023-11-21T02:27:36;6.43;;;4.03;;
16963;SDS011;8598;50.508;10.436;2023-11-21T02:30:03;8.70;;;3.90;;
16963;SDS011;8598;50.508;10.436;2023-11-21T02:32:32;7.90;;;4.27;;
16963;SDS011;8598;50.508;10.436;2023-11-21T02:34:59;5.20;;;3.50;;
16963;SDS011;8598;50.508;10.436;2023-11-21T02:37:28;5.70;;;3.70;;
16963;SDS011;8598;50.508;10.436;2023-11-21T02:39:55;5.00;;;3.90;;
16963;SDS011;8598;50.508;10.436;2023-11-21T02:42:23;5.27;;;3.77;;
16963;SDS011;8598;50.508;10.436;2023-11-21T02:44:50;11.07;;;5.20;;
16963;SDS011;8598;50.508;10.436;2023-11-21T02:47:16;4.90;;;4.00;;
16963;SDS011;8598;50.508;10.436;2023-11-21T02:49:43;6.57;;;4.10;;
16963;SDS011;8598;50.508;10.436;2023-11-21T02:52:10;5.77;;;4.00;;
16963;SDS011;8598;50.508;10.436;2023-11-21T02:54:36;8.20;;;3.80;;
16963;SDS011;8598;50.508;10.436;2023-11-21T02:57:03;6.03;;;3.87;;
16963;SDS011;8598;50.508;10.436;2023-11-21T02:59:32;5.57;;;4.37;;
16963;SDS011;8598;50.508;10.436;2023-11-21T03:01:58;6.97;;;3.93;;
16963;SDS011;8598;50.508;10.436;2023-11-21T03:04:25;6.63;;;3.87;;
16963;SDS011;8598;50.508;10.436;2023-11-21T03:06:52;5.20;;;3.90;;
16963;SDS011;8598;50.508;10.436;2023-11-21T03:09:19;5.00;;;3.57;;
16963;SDS011;8598;50.508;10.436;2023-11-21T03:11:45;5.90;;;4.00;;
16963;SDS011;8598;50.508;10.436;2023-11-21T03:14:12;7.47;;;5.10;;
16963;SDS011;8598;50.508;10.436;2023-11-21T03:16:40;6.63;;;4.00;;
16963;SDS011;8598;50.508;10.436;2023-11-21T03:19:07;5.03;;;3.83;;
16963;SDS011;8598;50.508;10.436;2023-11-21T03:21:34;7.30;;;4.57;;
16963;SDS011;8598;50.508;10.436;2023-11-21T03:24:01;6.43;;;4.40;;
16963;SDS011;8598;50.508;10.436;2023-11-21T03:26:27;7.13;;;4.80;;
16963;SDS011;8598;50.508;10.436;2023-11-21T03:28:54;6.87;;;4.60;;
16963;SDS011;8598;50.508;10.436;2023-11-21T03:31:21;5.23;;;4.07;;
16963;SDS011;8598;50.508;10.436;2023-11-21T03:33:49;6.53;;;4.40;;
16963;SDS011;8598;50.508;10.436;2023-11-21T03:36:17;4.77;;;4.10;;
16963;SDS011;8598;50.508;10.436;2023-11-21T03:38:44;4.83;;;3.80;;
16963;SDS011;8598;50.508;10.436;2023-11-21T03:41:11;5.47;;;4.00;;
16963;SDS011;8598;50.508;10.436;2023-11-21T03:43:37;4.47;;;3.37;;
16963;SDS011;8598;50.508;10.436;2023-11-21T03:46:04;5.67;;;3.97;;
16963;SDS011;8598;50.508;10.436;2023-11-21T03:48:32;7.30;;;4.87;;
16963;SDS011;8598;50.508;10.436;2023-11-21T03:51:00;7.40;;;4.43;;
16963;SDS011;8598;50.508;10.436;2023-11-21T03:53:27;6.30;;;4.13;;
16963;SDS011;8598;50.508;10.436;2023-11-21T03:55:53;4.77;;;3.70;;
16963;SDS011;8598;50.508;10.436;2023-11-21T03:58:20;11.43;;;4.43;;
16963;SDS011;8598;50.508;10.436;2023-11-21T04:00:47;6.90;;;4.07;;
16963;SDS011;8598;50.508;10.436;2023-11-21T04:03:14;5.93;;;3.97;;
16963;SDS011;8598;50.508;10.436;2023-11-21T04:05:40;9.17;;;4.30;;
16963;SDS011;8598;50.508;10.436;2023-11-21T04:08:09;8.87;;;4.53;;
16963;SDS011;8598;50.508;10.436;2023-11-21T04:10:36;6.00;;;4.10;;
16963;SDS011;8598;50.508;10.436;2023-11-21T04:13:04;7.23;;;4.17;;
16963;SDS011;8598;50.508;10.436;2023-11-21T04:15:31;6.27;;;4.47;;
16963;SDS011;8598;50.508;10.436;2023-11-21T04:17:58;7.33;;;4.53;;
16963;SDS011;8598;50.508;10.436;2023-11-21T04:20:25;9.83;;;5.10;;
16963;SDS011;8598;50.508;10.436;2023-11-21T04:22:52;8.33;;;4.40;;
16963;SDS011;8598;50.508;10.436;2023-11-21T04:25:20;7.17;;;4.70;;
16963;SDS011;8598;50.508;10.436;2023-11-21T04:27:48;6.13;;;4.53;;
16963;SDS011;8598;50.508;10.436;2023-11-21T04:30:15;5.77;;;4.33;;
16963;SDS011;8598;50.508;10.436;2023-11-21T04:32:41;6.27;;;4.23;;
16963;SDS011;8598;50.508;10.436;2023-11-21T04:35:08;6.47;;;4.40;;
16963;SDS011;8598;50.508;10.436;2023-11-21T04:37:35;8.10;;;4.67;;
16963;SDS011;8598;50.508;10.436;2023-11-21T04:40:02;7.50;;;4.50;;
16963;SDS011;8598;50.508;10.436;2023-11-21T04:42:32;11.87;;;5.83;;
16963;SDS011;8598;50.508;10.436;2023-11-21T04:45:00;5.93;;;4.33;;
16963;SDS011;8598;50.508;10.436;2023-11-21T04:47:30;7.70;;;5.27;;
16963;SDS011;8598;50.508;10.436;2023-11-21T04:49:56;9.93;;;5.23;;
16963;SDS011;8598;50.508;10.436;2023-11-21T04:52:23;7.50;;;5.13;;
16963;SDS011;8598;50.508;10.436;2023-11-21T04:54:50;7.70;;;4.87;;
16963;SDS011;8598;50.508;10.436;2023-11-21T04:57:19;6.63;;;4.77;;
16963;SDS011;8598;50.508;10.436;2023-11-21T04:59:48;10.13;;;5.07;;
16963;SDS011;8598;50.508;10.436;2023-11-21T05:02:15;7.93;;;5.37;;
16963;SDS011;8598;50.508;10.436;2023-11-21T05:04:44;7.33;;;4.77;;
16963;SDS011;8598;50.508;10.436;2023-11-21T05:07:11;9.47;;;5.47;;
16963;SDS011;8598;50.508;10.436;2023-11-21T05:09:40;8.50;;;5.37;;
16963;SDS011;8598;50.508;10.436;2023-11-21T05:12:09;7.40;;;4.97;;
16963;SDS011;8598;50.508;10.436;2023-11-21T05:14:35;8.83;;;5.53;;
16963;SDS011;8598;50.508;10.436;2023-11-21T05:17:04;7.97;;;5.47;;
16963;SDS011;8598;50.508;10.436;2023-11-21T05:19:30;10.03;;;6.50;;
16963;SDS011;8598;50.508;10.436;2023-11-21T05:21:57;10.90;;;6.77;;
16963;SDS011;8598;50.508;10.436;2023-11-21T05:24:25;12.97;;;7.23;;
16963;SDS011;8598;50.508;10.436;2023-11-21T05:26:52;11.70;;;7.20;;
16963;SDS011;8598;50.508;10.436;2023-11-21T05:29:19;11.53;;;7.00;;
16963;SDS011;8598;50.508;10.436;2023-11-21T05:31:46;12.53;;;7.70;;
16963;SDS011;8598;50.508;10.436;2023-11-21T05:34:14;11.57;;;7.50;;
16963;SDS011;8598;50.508;10.436;2023-11-21T05:36:42;11.33;;;7.23;;
16963;SDS011;8598;50.508;10.436;2023-11-21T05:39:09;13.70;;;7.37;;
16963;SDS011;8598;50.508;10.436;2023-11-21T05:41:36;10.87;;;6.77;;
16963;SDS011;8598;50.508;10.436;2023-11-21T05:44:03;12.93;;;7.40;;
16963;SDS011;8598;50.508;10.436;2023-11-21T05:46:30;10.53;;;6.23;;
16963;SDS011;8598;50.508;10.436;2023-11-21T05:48:57;9.77;;;6.43;;
16963;SDS011;8598;50.508;10.436;2023-11-21T05:51:25;11.23;;;5.63;;
16963;SDS011;8598;50.508;10.436;2023-11-21T05:53:51;8.13;;;4.63;;
16963;SDS011;8598;50.508;10.436;2023-11-21T05:56:18;7.57;;;5.17;;
16963;SDS011;8598;50.508;10.436;2023-11-21T05:58:45;10.40;;;5.07;;
16963;SDS011;8598;50.508;10.436;2023-11-21T06:01:12;7.23;;;4.53;;
16963;SDS011;8598;50.508;10.436;2023-11-21T06:03:39;9.50;;;4.90;;
16963;SDS011;8598;50.508;10.436;2023-11-21T06:06:06;7.43;;;5.10;;
16963;SDS011;8598;50.508;10.436;2023-11-21T06:08:34;8.13;;;5.60;;
16963;SDS011;8598;50.508;10.436;2023-11-21T06:11:01;9.67;;;5.53;;
16963;SDS011;8598;50.508;10.436;2023-11-21T06:13:27;8.40;;;5.77;;
16963;SDS011;8598;50.508;10.436;2023-11-21T06:15:55;12.30;;;6.40;;
16963;SDS011;8598;50.508;10.436;2023-11-21T06:18:22;10.40;;;6.43;;
16963;SDS011;8598;50.508;10.436;2023-11-21T06:20:49;13.87;;;8.73;;
16963;SDS011;8598;50.508;10.436;2023-11-21T06:23:17;12.90;;;7.33;;
16963;SDS011;8598;50.508;10.436;2023-11-21T06:25:45;13.50;;;7.63;;
16963;SDS011;8598;50.508;10.436;2023-11-21T06:28:12;13.13;;;7.40;;
16963;SDS011;8598;50.508;10.436;2023-11-21T06:30:42;12.77;;;7.30;;
16963;SDS011;8598;50.508;10.436;2023-11-21T06:33:09;14.97;;;9.07;;
16963;SDS011;8598;50.508;10.436;2023-11-21T06:35:36;14.00;;;8.00;;
16963;SDS011;8598;50.508;10.436;2023-11-21T06:38:03;17.13;;;8.40;;
16963;SDS011;8598;50.508;10.436;2023-11-21T06:40:30;21.83;;;8.83;;
16963;SDS011;8598;50.508;10.436;2023-11-21T06:43:00;18.07;;;9.20;;
16963;SDS011;8598;50.508;10.436;2023-11-21T06:45:26;17.70;;;8.83;;
16963;SDS011;8598;50.508;10.436;2023-11-21T06:47:53;16.93;;;8.17;;
16963;SDS011;8598;50.508;10.436;2023-11-21T06:50:20;21.20;;;8.30;;
16963;SDS011;8598;50.508;10.436;2023-11-21T06:52:47;19.30;;;8.87;;
16963;SDS011;8598;50.508;10.436;2023-11-21T06:55:13;17.07;;;8.97;;
16963;SDS011;8598;50.508;10.436;2023-11-21T06:57:41;15.50;;;8.23;;
16963;SDS011;8598;50.508;10.436;2023-11-21T07:00:10;17.47;;;7.27;;
16963;SDS011;8598;50.508;10.436;2023-11-21T07:02:37;17.97;;;8.33;;
16963;SDS011;8598;50.508;10.436;2023-11-21T07:05:04;18.77;;;8.63;;
16963;SDS011;8598;50.508;10.436;2023-11-21T07:07:31;16.57;;;8.27;;
16963;SDS011;8598;50.508;10.436;2023-11-21T07:10:00;19.10;;;8.83;;
16963;SDS011;8598;50.508;10.436;2023-11-21T07:12:28;19.30;;;9.10;;
16963;SDS011;8598;50.508;10.436;2023-11-21T07:14:56;16.33;;;7.93;;
16963;SDS011;8598;50.508;10.436;2023-11-21T07:17:24;20.50;;;8.10;;
16963;SDS011;8598;50.508;10.436;2023-11-21T07:19:50;15.17;;;8.17;;
16963;SDS011;8598;50.508;10.436;2023-11-21T07:22:17;19.23;;;8.90;;
16963;SDS011;8598;50.508;10.436;2023-11-21T07:24:47;15.63;;;7.40;;
16963;SDS011;8598;50.508;10.436;2023-11-21T07:27:15;17.70;;;8.80;;
16963;SDS011;8598;50.508;10.436;2023-11-21T07:29:41;15.43;;;8.23;;
16963;SDS011;8598;50.508;10.436;2023-11-21T07:32:08;11.60;;;6.40;;
16963;SDS011;8598;50.508;10.436;2023-11-21T07:34:36;10.77;;;5.63;;
16963;SDS011;8598;50.508;10.436;2023-11-21T07:37:03;10.03;;;5.73;;
16963;SDS011;8598;50.508;10.436;2023-11-21T07:39:30;11.23;;;6.00;;
16963;SDS011;8598;50.508;10.436;2023-11-21T07:41:56;13.20;;;6.80;;
16963;SDS011;8598;50.508;10.436;2023-11-21T07:44:23;13.90;;;5.93;;
16963;SDS011;8598;50.508;10.436;2023-11-21T07:46:51;7.90;;;5.60;;
16963;SDS011;8598;50.508;10.436;2023-11-21T07:49:22;8.77;;;5.73;;
16963;SDS011;8598;50.508;10.436;2023-11-21T07:51:50;8.20;;;5.67;;
16963;SDS011;8598;50.508;10.436;2023-11-21T07:54:17;11.13;;;6.30;;
16963;SDS011;8598;50.508;10.436;2023-11-21T07:56:43;13.97;;;6.33;;
16963;SDS011;8598;50.508;10.436;2023-11-21T07:59:10;17.43;;;7.57;;
16963;SDS011;8598;50.508;10.436;2023-11-21T08:01:37;16.30;;;7.50;;
16963;SDS011;8598;50.508;10.436;2023-11-21T08:04:05;14.20;;;6.93;;
16963;SDS011;8598;50.508;10.436;2023-11-21T08:06:33;15.70;;;7.00;;
16963;SDS011;8598;50.508;10.436;2023-11-21T08:09:01;15.63;;;7.67;;
16963;SDS011;8598;50.508;10.436;2023-11-21T08:11:28;11.23;;;5.50;;
16963;SDS011;8598;50.508;10.436;2023-11-21T08:13:57;8.83;;;5.63;;
16963;SDS011;8598;50.508;10.436;2023-11-21T08:16:24;9.50;;;5.67;;
16963;SDS011;8598;50.508;10.436;2023-11-21T08:18:50;13.47;;;7.03;;
16963;SDS011;8598;50.508;10.436;2023-11-21T08:21:17;12.97;;;6.77;;
16963;SDS011;8598;50.508;10.436;2023-11-21T08:23:45;8.13;;;6.17;;
16963;SDS011;8598;50.508;10.436;2023-11-21T08:26:15;10.43;;;5.63;;
16963;SDS011;8598;50.508;10.436;2023-11-21T08:28:43;11.37;;;6.40;;
16963;SDS011;8598;50.508;10.436;2023-11-21T08:31:10;20.87;;;6.87;;
16963;SDS011;8598;50.508;10.436;2023-11-21T08:33:36;18.47;;;9.57;;
16963;SDS011;8598;50.508;10.436;2023-11-21T08:36:06;24.10;;;10.30;;
16963;SDS011;8598;50.508;10.436;2023-11-21T08:38:33;18.27;;;8.83;;
16963;SDS011;8598;50.508;10.436;2023-11-21T08:41:02;18.17;;;9.37;;
16963;SDS011;8598;50.508;10.436;2023-11-21T08:43:33;14.67;;;7.33;;
16963;SDS011;8598;50.508;10.436;2023-11-21T08:46:00;19.77;;;7.03;;
16963;SDS011;8598;50.508;10.436;2023-11-21T08:48:28;17.30;;;8.37;;
16963;SDS011;8598;50.508;10.436;2023-11-21T08:50:54;12.80;;;7.30;;
16963;SDS011;8598;50.508;10.436;2023-11-21T08:53:21;15.63;;;7.20;;
16963;SDS011;8598;50.508;10.436;2023-11-21T08:55:48;12.20;;;6.10;;
16963;SDS011;8598;50.508;10.436;2023-11-21T08:58:15;13.53;;;6.57;;
16963;SDS011;8598;50.508;10.436;2023-11-21T09:00:43;11.50;;;5.53;;
16963;SDS011;8598;50.508;10.436;2023-11-21T09:03:11;11.67;;;5.73;;
16963;SDS011;8598;50.508;10.436;2023-11-21T09:05:38;12.50;;;6.40;;
16963;SDS011;8598;50.508;10.436;2023-11-21T09:08:05;13.73;;;7.03;;
16963;SDS011;8598;50.508;10.436;2023-11-21T09:10:33;12.70;;;6.93;;
16963;SDS011;8598;50.508;10.436;2023-11-21T09:13:01;12.70;;;6.77;;
16963;SDS011;8598;50.508;10.436;2023-11-21T09:15:28;14.20;;;6.80;;
16963;SDS011;8598;50.508;10.436;2023-11-21T09:17:56;13.83;;;8.23;;
16963;SDS011;8598;50.508;10.436;2023-11-21T09:20:23;15.50;;;7.60;;
16963;SDS011;8598;50.508;10.436;2023-11-21T09:22:50;16.30;;;8.43;;
16963;SDS011;8598;50.508;10.436;2023-11-21T09:25:16;14.30;;;7.17;;
16963;SDS011;8598;50.508;10.436;2023-11-21T09:27:44;12.53;;;7.33;;
16963;SDS011;8598;50.508;10.436;2023-11-21T09:30:12;17.90;;;8.47;;
16963;SDS011;8598;50.508;10.436;2023-11-21T09:32:39;12.73;;;8.80;;
16963;SDS011;8598;50.508;10.436;2023-11-21T09:35:11;15.63;;;7.77;;
16963;SDS011;8598;50.508;10.436;2023-11-21T09:37:39;14.03;;;7.33;;
16963;SDS011;8598;50.508;10.436;2023-11-21T09:40:06;12.80;;;8.00;;
16963;SDS011;8598;50.508;10.436;2023-11-21T09:42:38;12.33;;;7.77;;
16963;SDS011;8598;50.508;10.436;2023-11-21T09:45:09;16.20;;;8.90;;
16963;SDS011;8598;50.508;10.436;2023-11-21T09:47:45;15.30;;;7.33;;
16963;SDS011;8598;50.508;10.436;2023-11-21T09:50:14;14.77;;;7.80;;
16963;SDS011;8598;50.508;10.436;2023-11-21T09:52:45;12.73;;;7.20;;
16963;SDS011;8598;50.508;10.436;2023-11-21T09:55:20;12.13;;;7.60;;
16963;SDS011;8598;50.508;10.436;2023-11-21T09:57:47;11.87;;;7.73;;
16963;SDS011;8598;50.508;10.436;2023-11-21T10:00:15;17.93;;;8.30;;
16963;SDS011;8598;50.508;10.436;2023-11-21T10:02:45;9.73;;;6.70;;
16963;SDS011;8598;50.508;10.436;2023-11-21T10:05:12;16.93;;;8.13;;
16963;SDS011;8598;50.508;10.436;2023-11-21T10:07:41;14.30;;;7.67;;
16963;SDS011;8598;50.508;10.436;2023-11-21T10:10:10;12.97;;;7.00;;
16963;SDS011;8598;50.508;10.436;2023-11-21T10:12:36;9.80;;;6.83;;
16963;SDS011;8598;50.508;10.436;2023-11-21T10:15:06;15.63;;;7.93;;
16963;SDS011;8598;50.508;10.436;2023-11-21T10:17:36;11.70;;;7.50;;
16963;SDS011;8598;50.508;10.436;2023-11-21T10:20:08;15.93;;;7.27;;
16963;SDS011;8598;50.508;10.436;2023-11-21T10:22:38;13.60;;;7.00;;
16963;SDS011;8598;50.508;10.436;2023-11-21T10:25:08;12.47;;;7.90;;
16963;SDS011;8598;50.508;10.436;2023-11-21T10:27:36;13.37;;;7.00;;
16963;SDS011;8598;50.508;10.436;2023-11-21T10:30:04;13.00;;;7.00;;
16963;SDS011;8598;50.508;10.436;2023-11-21T10:32:32;13.83;;;6.50;;
16963;SDS011;8598;50.508;10.436;2023-11-21T10:34:59;13.57;;;7.97;;
16963;SDS011;8598;50.508;10.436;2023-11-21T10:37:31;13.60;;;7.90;;
16963;SDS011;8598;50.508;10.436;2023-11-21T10:39:58;12.20;;;6.17;;
16963;SDS011;8598;50.508;10.436;2023-11-21T10:42:26;8.30;;;5.53;;
16963;SDS011;8598;50.508;10.436;2023-11-21T10:44:53;7.53;;;5.73;;
16963;SDS011;8598;50.508;10.436;2023-11-21T10:47:20;12.83;;;5.53;;
16963;SDS011;8598;50.508;10.436;2023-11-21T10:49:49;8.63;;;4.27;;
16963;SDS011;8598;50.508;10.436;2023-11-21T10:52:18;12.97;;;4.57;;
16963;SDS011;8598;50.508;10.436;2023-11-21T10:54:45;8.27;;;4.43;;
16963;SDS011;8598;50.508;10.436;2023-11-21T10:57:13;7.77;;;4.13;;
16963;SDS011;8598;50.508;10.436;2023-11-21T10:59:46;10.10;;;4.10;;
16963;SDS011;8598;50.508;10.436;2023-11-21T11:02:16;6.60;;;4.33;;
16963;SDS011;8598;50.508;10.436;2023-11-21T11:04:50;8.83;;;4.67;;
16963;SDS011;8598;50.508;10.436;2023-11-21T11:07:20;9.90;;;4.07;;
16963;SDS011;8598;50.508;10.436;2023-11-21T11:09:50;12.77;;;4.27;;
16963;SDS011;8598;50.508;10.436;2023-11-21T11:12:18;6.90;;;3.70;;
16963;SDS011;8598;50.508;10.436;2023-11-21T11:14:46;13.30;;;4.30;;
16963;SDS011;8598;50.508;10.436;2023-11-21T11:17:14;9.87;;;3.57;;
16963;SDS011;8598;50.508;10.436;2023-11-21T11:19:41;5.73;;;3.07;;
16963;SDS011;8598;50.508;10.436;2023-11-21T11:22:12;6.17;;;3.77;;
16963;SDS011;8598;50.508;10.436;2023-11-21T11:24:58;8.37;;;4.73;;
16963;SDS011;8598;50.508;10.436;2023-11-21T11:27:40;10.77;;;4.83;;
16963;SDS011;8598;50.508;10.436;2023-11-21T11:30:19;9.03;;;3.47;;
16963;SDS011;8598;50.508;10.436;2023-11-21T11:32:59;7.90;;;4.17;;
16963;SDS011;8598;50.508;10.436;2023-11-21T11:35:33;13.90;;;3.87;;
16963;SDS011;8598;50.508;10.436;2023-11-21T11:38:04;10.37;;;4.17;;
16963;SDS011;8598;50.508;10.436;2023-11-21T11:40:40;8.53;;;4.30;;
16963;SDS011;8598;50.508;10.436;2023-11-21T11:43:07;10.03;;;4.87;;
16963;SDS011;8598;50.508;10.436;2023-11-21T11:45:36;9.97;;;4.40;;
16963;SDS011;8598;50.508;10.436;2023-11-21T11:48:06;10.60;;;4.50;;
16963;SDS011;8598;50.508;10.436;2023-11-21T11:50:33;8.93;;;4.97;;
16963;SDS011;8598;50.508;10.436;2023-11-21T11:53:11;12.33;;;6.83;;
16963;SDS011;8598;50.508;10.436;2023-11-21T11:55:39;10.50;;;4.70;;
16963;SDS011;8598;50.508;10.436;2023-11-21T11:58:07;8.87;;;4.60;;
16963;SDS011;8598;50.508;10.436;2023-11-21T12:00:35;10.67;;;5.07;;
16963;SDS011;8598;50.508;10.436;2023-11-21T12:03:05;11.43;;;4.37;;
16963;SDS011;8598;50.508;10.436;2023-11-21T12:05:33;9.23;;;5.10;;
16963;SDS011;8598;50.508;10.436;2023-11-21T12:08:04;8.07;;;4.87;;
16963;SDS011;8598;50.508;10.436;2023-11-21T12:10:32;13.87;;;5.27;;
16963;SDS011;8598;50.508;10.436;2023-11-21T12:13:00;11.50;;;4.83;;
16963;SDS011;8598;50.508;10.436;2023-11-21T12:15:27;8.80;;;4.77;;
16963;SDS011;8598;50.508;10.436;2023-11-21T12:17:57;11.70;;;5.53;;
16963;SDS011;8598;50.508;10.436;2023-11-21T12:20:25;10.87;;;4.73;;
16963;SDS011;8598;50.508;10.436;2023-11-21T12:22:52;7.13;;;3.80;;
16963;SDS011;8598;50.508;10.436;2023-11-21T12:25:20;6.13;;;3.50;;
16963;SDS011;8598;50.508;10.436;2023-11-21T12:27:47;12.03;;;4.20;;
16963;SDS011;8598;50.508;10.436;2023-11-21T12:30:16;8.73;;;5.10;;
16963;SDS011;8598;50.508;10.436;2023-11-21T12:32:44;7.67;;;4.53;;
16963;SDS011;8598;50.508;10.436;2023-11-21T12:35:13;6.73;;;4.80;;
16963;SDS011;8598;50.508;10.436;2023-11-21T12:37:42;10.70;;;4.47;;
16963;SDS011;8598;50.508;10.436;2023-11-21T12:40:09;12.53;;;5.20;;
16963;SDS011;8598;50.508;10.436;2023-11-21T12:42:40;8.73;;;4.80;;
16963;SDS011;8598;50.508;10.436;2023-11-21T12:45:08;10.03;;;4.30;;
16963;SDS011;8598;50.508;10.436;2023-11-21T12:47:41;6.97;;;3.67;;
16963;SDS011;8598;50.508;10.436;2023-11-21T12:50:08;5.97;;;3.10;;
16963;SDS011;8598;50.508;10.436;2023-11-21T12:52:41;5.33;;;3.40;;
16963;SDS011;8598;50.508;10.436;2023-11-21T12:55:12;7.37;;;4.00;;
16963;SDS011;8598;50.508;10.436;2023-11-21T12:57:41;7.93;;;3.47;;
16963;SDS011;8598;50.508;10.436;2023-11-21T13:00:12;11.03;;;4.57;;
16963;SDS011;8598;50.508;10.436;2023-11-21T13:02:52;8.83;;;3.50;;
16963;SDS011;8598;50.508;10.436;2023-11-21T13:05:26;5.27;;;3.33;;
16963;SDS011;8598;50.508;10.436;2023-11-21T13:07:55;6.70;;;3.63;;
16963;SDS011;8598;50.508;10.436;2023-11-21T13:10:24;8.77;;;3.80;;
16963;SDS011;8598;50.508;10.436;2023-11-21T13:12:54;3.90;;;3.50;;
16963;SDS011;8598;50.508;10.436;2023-11-21T13:15:23;5.67;;;3.73;;
16963;SDS011;8598;50.508;10.436;2023-11-21T13:17:50;3.97;;;3.33;;
16963;SDS011;8598;50.508;10.436;2023-11-21T13:20:18;6.73;;;3.60;;
16963;SDS011;8598;50.508;10.436;2023-11-21T13:22:49;5.63;;;3.80;;
16963;SDS011;8598;50.508;10.436;2023-11-21T13:25:20;5.53;;;3.43;;
16963;SDS011;8598;50.508;10.436;2023-11-21T13:27:47;7.13;;;3.63;;
16963;SDS011;8598;50.508;10.436;2023-11-21T13:30:15;5.07;;;3.57;;
16963;SDS011;8598;50.508;10.436;2023-11-21T13:32:42;3.53;;;3.23;;
16963;SDS011;8598;50.508;10.436;2023-11-21T13:35:11;7.13;;;3.90;;
16963;SDS011;8598;50.508;10.436;2023-11-21T13:37:45;3.73;;;3.33;;
16963;SDS011;8598;50.508;10.436;2023-11-21T13:40:14;7.83;;;4.10;;
16963;SDS011;8598;50.508;10.436;2023-11-21T13:42:48;7.50;;;4.17;;
16963;SDS011;8598;50.508;10.436;2023-11-21T13:45:18;7.63;;;4.20;;
16963;SDS011;8598;50.508;10.436;2023-11-21T13:47:47;6.67;;;4.27;;
16963;SDS011;8598;50.508;10.436;2023-11-21T13:50:16;8.13;;;3.87;;
16963;SDS011;8598;50.508;10.436;2023-11-21T13:52:47;7.07;;;4.50;;
16963;SDS011;8598;50.508;10.436;2023-11-21T13:55:16;11.27;;;5.17;;
16963;SDS011;8598;50.508;10.436;2023-11-21T13:57:43;7.30;;;4.97;;
16963;SDS011;8598;50.508;10.436;2023-11-21T14:00:14;10.57;;;5.30;;
16963;SDS011;8598;50.508;10.436;2023-11-21T14:03:01;8.30;;;5.03;;
16963;SDS011;8598;50.508;10.436;2023-11-21T14:05:33;13.27;;;7.40;;
16963;SDS011;8598;50.508;10.436;2023-11-21T14:08:00;7.43;;;4.87;;
16963;SDS011;8598;50.508;10.436;2023-11-21T14:10:29;9.60;;;4.90;;
16963;SDS011;8598;50.508;10.436;2023-11-21T14:13:05;7.37;;;4.10;;
16963;SDS011;8598;50.508;10.436;2023-11-21T14:15:33;7.20;;;4.10;;
16963;SDS011;8598;50.508;10.436;2023-11-21T14:18:03;15.33;;;4.37;;
16963;SDS011;8598;50.508;10.436;2023-11-21T14:20:33;7.73;;;4.27;;
16963;SDS011;8598;50.508;10.436;2023-11-21T14:23:01;9.40;;;4.53;;
16963;SDS011;8598;50.508;10.436;2023-11-21T14:25:28;7.93;;;3.70;;
16963;SDS011;8598;50.508;10.436;2023-11-21T14:27:54;9.70;;;4.33;;
16963;SDS011;8598;50.508;10.436;2023-11-21T14:30:22;10.40;;;5.13;;
16963;SDS011;8598;50.508;10.436;2023-11-21T14:32:51;10.00;;;4.60;;
16963;SDS011;8598;50.508;10.436;2023-11-21T14:35:17;12.60;;;4.70;;
16963;SDS011;8598;50.508;10.436;2023-11-21T14:37:44;4.63;;;3.47;;
16963;SDS011;8598;50.508;10.436;2023-11-21T14:40:11;11.50;;;4.50;;
16963;SDS011;8598;50.508;10.436;2023-11-21T14:42:41;8.43;;;3.93;;
16963;SDS011;8598;50.508;10.436;2023-11-21T14:45:08;5.77;;;4.53;;
16963;SDS011;8598;50.508;10.436;2023-11-21T14:47:38;9.93;;;4.57;;
16963;SDS011;8598;50.508;10.436;2023-11-21T14:50:10;7.57;;;3.83;;